sensor_id;sensor_type;location;lat;lon;timestamp;P1;durP1;ratioP1;P2;durP2;ratioP2
11797;SDS011;5956;51.428;6.682;2023-08-06T00:00:06;4.65;;;3.90;;
11797;SDS011;5956;51.428;6.682;2023-08-06T00:02:33;4.50;;;4.10;;
11797;SDS011;5956;51.428;6.682;2023-08-06T00:05:00;3.83;;;3.53;;
11797;SDS011;5956;51.428;6.682;2023-08-06T00:07:26;4.68;;;3.35;;
11797;SDS011;5956;51.428;6.682;2023-08-06T00:09:54;5.50;;;3.78;;
11797;SDS011;5956;51.428;6.682;2023-08-06T00:12:20;5.05;;;3.83;;
11797;SDS011;5956;51.428;6.682;2023-08-06T00:14:49;4.05;;;3.65;;
11797;SDS011;5956;51.428;6.682;2023-08-06T00:17:16;3.65;;;3.35;;
11797;SDS011;5956;51.428;6.682;2023-08-06T00:19:42;4.57;;;4.18;;
11797;SDS011;5956;51.428;6.682;2023-08-06T00:22:09;4.03;;;3.70;;
11797;SDS011;5956;51.428;6.682;2023-08-06T00:24:35;4.25;;;3.92;;
11797;SDS011;5956;51.428;6.682;2023-08-06T00:27:04;5.57;;;3.90;;
11797;SDS011;5956;51.428;6.682;2023-08-06T00:29:30;3.80;;;3.50;;
11797;SDS011;5956;51.428;6.682;2023-08-06T00:31:57;4.18;;;3.95;;
11797;SDS011;5956;51.428;6.682;2023-08-06T00:34:23;4.15;;;3.75;;
11797;SDS011;5956;51.428;6.682;2023-08-06T00:36:49;5.82;;;3.80;;
11797;SDS011;5956;51.428;6.682;2023-08-06T00:39:16;4.03;;;3.72;;
11797;SDS011;5956;51.428;6.682;2023-08-06T00:41:43;5.85;;;3.67;;
11797;SDS011;5956;51.428;6.682;2023-08-06T00:44:11;4.25;;;3.85;;
11797;SDS011;5956;51.428;6.682;2023-08-06T00:46:37;4.10;;;3.67;;
11797;SDS011;5956;51.428;6.682;2023-08-06T00:49:04;4.28;;;3.90;;
11797;SDS011;5956;51.428;6.682;2023-08-06T00:51:31;4.10;;;3.80;;
11797;SDS011;5956;51.428;6.682;2023-08-06T00:53:58;3.92;;;3.17;;
11797;SDS011;5956;51.428;6.682;2023-08-06T00:56:24;3.75;;;3.45;;
11797;SDS011;5956;51.428;6.682;2023-08-06T00:58:51;3.75;;;3.35;;
11797;SDS011;5956;51.428;6.682;2023-08-06T01:01:19;3.83;;;3.53;;
11797;SDS011;5956;51.428;6.682;2023-08-06T01:03:46;4.88;;;4.00;;
11797;SDS011;5956;51.428;6.682;2023-08-06T01:06:13;6.28;;;3.60;;
11797;SDS011;5956;51.428;6.682;2023-08-06T01:08:42;4.70;;;3.45;;
11797;SDS011;5956;51.428;6.682;2023-08-06T01:11:17;3.97;;;3.55;;
11797;SDS011;5956;51.428;6.682;2023-08-06T01:13:48;4.28;;;3.88;;
11797;SDS011;5956;51.428;6.682;2023-08-06T01:16:15;6.85;;;4.13;;
11797;SDS011;5956;51.428;6.682;2023-08-06T01:18:43;3.50;;;3.20;;
11797;SDS011;5956;51.428;6.682;2023-08-06T01:21:12;5.07;;;3.58;;
11797;SDS011;5956;51.428;6.682;2023-08-06T01:23:39;4.47;;;3.20;;
11797;SDS011;5956;51.428;6.682;2023-08-06T01:26:09;3.53;;;3.15;;
11797;SDS011;5956;51.428;6.682;2023-08-06T01:28:40;3.22;;;3.03;;
11797;SDS011;5956;51.428;6.682;2023-08-06T01:31:07;2.78;;;2.60;;
11797;SDS011;5956;51.428;6.682;2023-08-06T01:33:35;4.45;;;3.50;;
11797;SDS011;5956;51.428;6.682;2023-08-06T01:36:02;4.88;;;3.25;;
11797;SDS011;5956;51.428;6.682;2023-08-06T01:38:31;3.40;;;3.20;;
11797;SDS011;5956;51.428;6.682;2023-08-06T01:40:58;3.40;;;3.20;;
11797;SDS011;5956;51.428;6.682;2023-08-06T01:43:24;3.90;;;3.38;;
11797;SDS011;5956;51.428;6.682;2023-08-06T01:45:50;5.05;;;2.97;;
11797;SDS011;5956;51.428;6.682;2023-08-06T01:48:17;3.90;;;3.10;;
11797;SDS011;5956;51.428;6.682;2023-08-06T01:50:43;3.85;;;3.47;;
11797;SDS011;5956;51.428;6.682;2023-08-06T01:53:10;3.33;;;3.00;;
11797;SDS011;5956;51.428;6.682;2023-08-06T01:55:38;3.63;;;3.20;;
11797;SDS011;5956;51.428;6.682;2023-08-06T01:58:04;5.53;;;3.35;;
11797;SDS011;5956;51.428;6.682;2023-08-06T02:00:31;3.28;;;3.08;;
11797;SDS011;5956;51.428;6.682;2023-08-06T02:02:57;6.38;;;3.10;;
11797;SDS011;5956;51.428;6.682;2023-08-06T02:05:23;3.20;;;3.00;;
11797;SDS011;5956;51.428;6.682;2023-08-06T02:07:50;3.72;;;3.08;;
11797;SDS011;5956;51.428;6.682;2023-08-06T02:10:16;3.33;;;3.03;;
11797;SDS011;5956;51.428;6.682;2023-08-06T02:12:44;3.30;;;3.05;;
11797;SDS011;5956;51.428;6.682;2023-08-06T02:15:11;3.08;;;2.88;;
11797;SDS011;5956;51.428;6.682;2023-08-06T02:17:37;3.65;;;3.30;;
11797;SDS011;5956;51.428;6.682;2023-08-06T02:20:04;3.85;;;3.00;;
11797;SDS011;5956;51.428;6.682;2023-08-06T02:22:31;3.78;;;3.40;;
11797;SDS011;5956;51.428;6.682;2023-08-06T02:24:58;3.60;;;3.30;;
11797;SDS011;5956;51.428;6.682;2023-08-06T02:27:24;2.83;;;2.55;;
11797;SDS011;5956;51.428;6.682;2023-08-06T02:29:52;3.25;;;3.05;;
11797;SDS011;5956;51.428;6.682;2023-08-06T02:32:19;3.45;;;3.15;;
11797;SDS011;5956;51.428;6.682;2023-08-06T02:34:45;4.47;;;3.20;;
11797;SDS011;5956;51.428;6.682;2023-08-06T02:37:12;3.83;;;3.47;;
11797;SDS011;5956;51.428;6.682;2023-08-06T02:39:38;3.70;;;3.38;;
11797;SDS011;5956;51.428;6.682;2023-08-06T02:42:06;6.95;;;3.15;;
11797;SDS011;5956;51.428;6.682;2023-08-06T02:44:32;3.83;;;3.50;;
11797;SDS011;5956;51.428;6.682;2023-08-06T02:47:00;4.43;;;4.00;;
11797;SDS011;5956;51.428;6.682;2023-08-06T02:49:27;6.15;;;3.90;;
11797;SDS011;5956;51.428;6.682;2023-08-06T02:51:53;4.18;;;3.78;;
11797;SDS011;5956;51.428;6.682;2023-08-06T02:54:20;5.70;;;3.83;;
11797;SDS011;5956;51.428;6.682;2023-08-06T02:56:46;3.97;;;3.67;;
11797;SDS011;5956;51.428;6.682;2023-08-06T02:59:13;4.28;;;3.85;;
11797;SDS011;5956;51.428;6.682;2023-08-06T03:01:39;5.10;;;4.18;;
11797;SDS011;5956;51.428;6.682;2023-08-06T03:04:07;3.90;;;3.60;;
11797;SDS011;5956;51.428;6.682;2023-08-06T03:06:34;3.85;;;3.42;;
11797;SDS011;5956;51.428;6.682;2023-08-06T03:09:00;3.50;;;3.20;;
11797;SDS011;5956;51.428;6.682;2023-08-06T03:11:27;4.20;;;3.58;;
11797;SDS011;5956;51.428;6.682;2023-08-06T03:13:53;4.28;;;3.85;;
11797;SDS011;5956;51.428;6.682;2023-08-06T03:16:19;3.88;;;3.50;;
11797;SDS011;5956;51.428;6.682;2023-08-06T03:18:46;8.65;;;3.90;;
11797;SDS011;5956;51.428;6.682;2023-08-06T03:21:14;4.13;;;3.50;;
11797;SDS011;5956;51.428;6.682;2023-08-06T03:23:40;3.65;;;3.25;;
11797;SDS011;5956;51.428;6.682;2023-08-06T03:26:07;4.15;;;3.65;;
11797;SDS011;5956;51.428;6.682;2023-08-06T03:28:34;4.75;;;3.25;;
11797;SDS011;5956;51.428;6.682;2023-08-06T03:31:00;4.30;;;3.80;;
11797;SDS011;5956;51.428;6.682;2023-08-06T03:33:27;4.10;;;3.47;;
11797;SDS011;5956;51.428;6.682;2023-08-06T03:35:53;3.85;;;3.55;;
11797;SDS011;5956;51.428;6.682;2023-08-06T03:38:21;3.80;;;3.33;;
11797;SDS011;5956;51.428;6.682;2023-08-06T03:40:48;4.30;;;3.70;;
11797;SDS011;5956;51.428;6.682;2023-08-06T03:43:15;4.15;;;3.72;;
11797;SDS011;5956;51.428;6.682;2023-08-06T03:45:41;4.40;;;3.50;;
11797;SDS011;5956;51.428;6.682;2023-08-06T03:48:08;4.15;;;3.83;;
11797;SDS011;5956;51.428;6.682;2023-08-06T03:50:34;3.72;;;3.40;;
11797;SDS011;5956;51.428;6.682;2023-08-06T03:53:01;5.63;;;3.50;;
11797;SDS011;5956;51.428;6.682;2023-08-06T03:55:29;6.47;;;3.80;;
11797;SDS011;5956;51.428;6.682;2023-08-06T03:57:55;4.72;;;3.70;;
11797;SDS011;5956;51.428;6.682;2023-08-06T04:00:22;4.00;;;3.50;;
11797;SDS011;5956;51.428;6.682;2023-08-06T04:02:48;4.28;;;3.88;;
11797;SDS011;5956;51.428;6.682;2023-08-06T04:05:15;3.97;;;3.63;;
11797;SDS011;5956;51.428;6.682;2023-08-06T04:07:42;3.90;;;3.67;;
11797;SDS011;5956;51.428;6.682;2023-08-06T04:10:09;5.00;;;3.72;;
11797;SDS011;5956;51.428;6.682;2023-08-06T04:12:36;4.05;;;3.75;;
11797;SDS011;5956;51.428;6.682;2023-08-06T04:15:04;4.85;;;4.00;;
11797;SDS011;5956;51.428;6.682;2023-08-06T04:17:31;3.70;;;3.17;;
11797;SDS011;5956;51.428;6.682;2023-08-06T04:19:57;3.53;;;3.33;;
11797;SDS011;5956;51.428;6.682;2023-08-06T04:22:24;4.00;;;3.78;;
11797;SDS011;5956;51.428;6.682;2023-08-06T04:24:51;4.53;;;4.13;;
11797;SDS011;5956;51.428;6.682;2023-08-06T04:27:18;3.95;;;3.55;;
11797;SDS011;5956;51.428;6.682;2023-08-06T04:29:46;4.93;;;3.08;;
11797;SDS011;5956;51.428;6.682;2023-08-06T04:32:13;3.50;;;3.15;;
11797;SDS011;5956;51.428;6.682;2023-08-06T04:34:39;5.47;;;3.35;;
11797;SDS011;5956;51.428;6.682;2023-08-06T04:37:06;3.50;;;3.30;;
11797;SDS011;5956;51.428;6.682;2023-08-06T04:39:32;7.18;;;4.05;;
11797;SDS011;5956;51.428;6.682;2023-08-06T04:41:59;3.90;;;3.60;;
11797;SDS011;5956;51.428;6.682;2023-08-06T04:44:25;3.47;;;3.17;;
11797;SDS011;5956;51.428;6.682;2023-08-06T04:46:53;4.68;;;3.20;;
11797;SDS011;5956;51.428;6.682;2023-08-06T04:49:20;3.78;;;3.38;;
11797;SDS011;5956;51.428;6.682;2023-08-06T04:51:46;4.38;;;2.78;;
11797;SDS011;5956;51.428;6.682;2023-08-06T04:54:13;3.60;;;3.28;;
11797;SDS011;5956;51.428;6.682;2023-08-06T04:56:39;3.30;;;3.00;;
11797;SDS011;5956;51.428;6.682;2023-08-06T04:59:06;5.28;;;2.88;;
11797;SDS011;5956;51.428;6.682;2023-08-06T05:01:32;4.93;;;2.72;;
11797;SDS011;5956;51.428;6.682;2023-08-06T05:04:00;3.83;;;2.85;;
11797;SDS011;5956;51.428;6.682;2023-08-06T05:06:27;3.72;;;3.42;;
11797;SDS011;5956;51.428;6.682;2023-08-06T05:08:53;5.25;;;3.03;;
11797;SDS011;5956;51.428;6.682;2023-08-06T05:11:20;3.85;;;3.03;;
11797;SDS011;5956;51.428;6.682;2023-08-06T05:13:46;5.65;;;4.43;;
11797;SDS011;5956;51.428;6.682;2023-08-06T05:16:13;3.83;;;3.50;;
11797;SDS011;5956;51.428;6.682;2023-08-06T05:18:39;4.00;;;3.42;;
11797;SDS011;5956;51.428;6.682;2023-08-06T05:21:08;3.70;;;2.85;;
11797;SDS011;5956;51.428;6.682;2023-08-06T05:23:34;4.45;;;3.30;;
11797;SDS011;5956;51.428;6.682;2023-08-06T05:26:01;3.15;;;2.95;;
11797;SDS011;5956;51.428;6.682;2023-08-06T05:28:27;4.57;;;3.22;;
11797;SDS011;5956;51.428;6.682;2023-08-06T05:30:54;3.30;;;3.13;;
11797;SDS011;5956;51.428;6.682;2023-08-06T05:33:20;3.03;;;2.67;;
11797;SDS011;5956;51.428;6.682;2023-08-06T05:35:47;3.78;;;3.08;;
11797;SDS011;5956;51.428;6.682;2023-08-06T05:38:16;3.35;;;3.10;;
11797;SDS011;5956;51.428;6.682;2023-08-06T05:40:43;3.33;;;3.03;;
11797;SDS011;5956;51.428;6.682;2023-08-06T05:43:09;3.30;;;3.10;;
11797;SDS011;5956;51.428;6.682;2023-08-06T05:45:36;3.58;;;3.38;;
11797;SDS011;5956;51.428;6.682;2023-08-06T05:48:02;4.60;;;3.15;;
11797;SDS011;5956;51.428;6.682;2023-08-06T05:50:29;4.35;;;3.17;;
11797;SDS011;5956;51.428;6.682;2023-08-06T05:52:55;3.65;;;3.33;;
11797;SDS011;5956;51.428;6.682;2023-08-06T05:55:23;5.70;;;3.45;;
11797;SDS011;5956;51.428;6.682;2023-08-06T05:57:50;3.38;;;3.08;;
11797;SDS011;5956;51.428;6.682;2023-08-06T06:00:17;3.95;;;3.65;;
11797;SDS011;5956;51.428;6.682;2023-08-06T06:02:44;6.65;;;6.03;;
11797;SDS011;5956;51.428;6.682;2023-08-06T06:05:11;5.32;;;4.05;;
11797;SDS011;5956;51.428;6.682;2023-08-06T06:07:38;3.03;;;2.83;;
11797;SDS011;5956;51.428;6.682;2023-08-06T06:10:05;3.28;;;3.08;;
11797;SDS011;5956;51.428;6.682;2023-08-06T06:12:33;3.83;;;2.90;;
11797;SDS011;5956;51.428;6.682;2023-08-06T06:14:59;3.72;;;3.42;;
11797;SDS011;5956;51.428;6.682;2023-08-06T06:17:26;4.45;;;3.15;;
11797;SDS011;5956;51.428;6.682;2023-08-06T06:19:52;6.75;;;3.65;;
11797;SDS011;5956;51.428;6.682;2023-08-06T06:22:19;4.68;;;3.10;;
11797;SDS011;5956;51.428;6.682;2023-08-06T06:24:45;3.70;;;3.40;;
11797;SDS011;5956;51.428;6.682;2023-08-06T06:27:12;3.85;;;3.55;;
11797;SDS011;5956;51.428;6.682;2023-08-06T06:29:40;4.05;;;3.72;;
11797;SDS011;5956;51.428;6.682;2023-08-06T06:32:06;5.95;;;4.22;;
11797;SDS011;5956;51.428;6.682;2023-08-06T06:34:33;5.38;;;4.20;;
11797;SDS011;5956;51.428;6.682;2023-08-06T06:36:59;5.10;;;4.70;;
11797;SDS011;5956;51.428;6.682;2023-08-06T06:39:26;4.57;;;4.28;;
11797;SDS011;5956;51.428;6.682;2023-08-06T06:41:52;5.65;;;5.13;;
11797;SDS011;5956;51.428;6.682;2023-08-06T06:44:19;6.57;;;6.07;;
11797;SDS011;5956;51.428;6.682;2023-08-06T06:46:47;6.20;;;5.80;;
11797;SDS011;5956;51.428;6.682;2023-08-06T06:49:13;6.22;;;5.63;;
11797;SDS011;5956;51.428;6.682;2023-08-06T06:51:40;5.90;;;5.40;;
11797;SDS011;5956;51.428;6.682;2023-08-06T06:54:06;6.38;;;5.78;;
11797;SDS011;5956;51.428;6.682;2023-08-06T06:56:33;12.00;;;8.15;;
11797;SDS011;5956;51.428;6.682;2023-08-06T06:58:59;9.32;;;8.25;;
11797;SDS011;5956;51.428;6.682;2023-08-06T07:01:26;8.25;;;7.65;;
11797;SDS011;5956;51.428;6.682;2023-08-06T07:03:53;7.80;;;7.10;;
11797;SDS011;5956;51.428;6.682;2023-08-06T07:06:20;9.75;;;8.75;;
11797;SDS011;5956;51.428;6.682;2023-08-06T07:08:46;8.80;;;8.07;;
11797;SDS011;5956;51.428;6.682;2023-08-06T07:11:13;7.65;;;6.80;;
11797;SDS011;5956;51.428;6.682;2023-08-06T07:13:39;5.03;;;4.60;;
11797;SDS011;5956;51.428;6.682;2023-08-06T07:16:06;4.82;;;4.53;;
11797;SDS011;5956;51.428;6.682;2023-08-06T07:18:32;5.13;;;4.60;;
11797;SDS011;5956;51.428;6.682;2023-08-06T07:21:00;5.22;;;4.50;;
11797;SDS011;5956;51.428;6.682;2023-08-06T07:23:27;6.35;;;5.28;;
11797;SDS011;5956;51.428;6.682;2023-08-06T07:25:53;5.35;;;4.85;;
11797;SDS011;5956;51.428;6.682;2023-08-06T07:28:20;5.53;;;4.97;;
11797;SDS011;5956;51.428;6.682;2023-08-06T07:30:47;4.97;;;4.40;;
11797;SDS011;5956;51.428;6.682;2023-08-06T07:33:14;4.82;;;4.43;;
11797;SDS011;5956;51.428;6.682;2023-08-06T07:35:40;4.55;;;4.20;;
11797;SDS011;5956;51.428;6.682;2023-08-06T07:38:09;13.00;;;11.70;;
11797;SDS011;5956;51.428;6.682;2023-08-06T07:40:36;5.40;;;3.63;;
11797;SDS011;5956;51.428;6.682;2023-08-06T07:43:02;3.90;;;3.60;;
11797;SDS011;5956;51.428;6.682;2023-08-06T07:45:32;5.65;;;3.78;;
11797;SDS011;5956;51.428;6.682;2023-08-06T07:47:58;3.88;;;3.58;;
11797;SDS011;5956;51.428;6.682;2023-08-06T07:50:25;4.57;;;4.03;;
11797;SDS011;5956;51.428;6.682;2023-08-06T07:52:51;3.65;;;3.35;;
11797;SDS011;5956;51.428;6.682;2023-08-06T07:55:19;3.50;;;3.20;;
11797;SDS011;5956;51.428;6.682;2023-08-06T07:57:45;3.53;;;3.30;;
11797;SDS011;5956;51.428;6.682;2023-08-06T08:00:12;3.95;;;3.40;;
11797;SDS011;5956;51.428;6.682;2023-08-06T08:02:39;5.60;;;3.28;;
11797;SDS011;5956;51.428;6.682;2023-08-06T08:05:06;3.65;;;3.35;;
11797;SDS011;5956;51.428;6.682;2023-08-06T08:07:33;3.70;;;3.42;;
11797;SDS011;5956;51.428;6.682;2023-08-06T08:10:00;3.80;;;3.50;;
11797;SDS011;5956;51.428;6.682;2023-08-06T08:12:28;3.72;;;3.42;;
11797;SDS011;5956;51.428;6.682;2023-08-06T08:14:54;3.33;;;3.10;;
11797;SDS011;5956;51.428;6.682;2023-08-06T08:17:21;3.28;;;2.88;;
11797;SDS011;5956;51.428;6.682;2023-08-06T08:19:47;2.70;;;2.50;;
11797;SDS011;5956;51.428;6.682;2023-08-06T08:22:14;3.35;;;3.05;;
11797;SDS011;5956;51.428;6.682;2023-08-06T08:24:40;2.92;;;2.63;;
11797;SDS011;5956;51.428;6.682;2023-08-06T08:27:07;3.85;;;2.97;;
11797;SDS011;5956;51.428;6.682;2023-08-06T08:29:35;2.83;;;2.40;;
11797;SDS011;5956;51.428;6.682;2023-08-06T08:32:01;3.28;;;2.63;;
11797;SDS011;5956;51.428;6.682;2023-08-06T08:34:28;4.43;;;2.60;;
11797;SDS011;5956;51.428;6.682;2023-08-06T08:36:54;4.05;;;2.85;;
11797;SDS011;5956;51.428;6.682;2023-08-06T08:39:21;2.30;;;2.20;;
11797;SDS011;5956;51.428;6.682;2023-08-06T08:41:47;2.97;;;2.70;;
11797;SDS011;5956;51.428;6.682;2023-08-06T08:44:14;3.40;;;2.47;;
11797;SDS011;5956;51.428;6.682;2023-08-06T08:46:44;2.38;;;2.20;;
11797;SDS011;5956;51.428;6.682;2023-08-06T08:49:11;2.05;;;1.95;;
11797;SDS011;5956;51.428;6.682;2023-08-06T08:51:37;2.45;;;2.25;;
11797;SDS011;5956;51.428;6.682;2023-08-06T08:54:04;3.42;;;2.38;;
11797;SDS011;5956;51.428;6.682;2023-08-06T08:56:33;2.53;;;2.33;;
11797;SDS011;5956;51.428;6.682;2023-08-06T08:59:00;3.55;;;1.95;;
11797;SDS011;5956;51.428;6.682;2023-08-06T09:01:26;2.10;;;2.00;;
11797;SDS011;5956;51.428;6.682;2023-08-06T09:03:55;4.30;;;2.30;;
11797;SDS011;5956;51.428;6.682;2023-08-06T09:06:23;2.60;;;2.40;;
11797;SDS011;5956;51.428;6.682;2023-08-06T09:08:51;2.75;;;1.98;;
11797;SDS011;5956;51.428;6.682;2023-08-06T09:11:21;2.00;;;1.90;;
11797;SDS011;5956;51.428;6.682;2023-08-06T09:13:47;3.53;;;2.08;;
11797;SDS011;5956;51.428;6.682;2023-08-06T09:16:14;3.63;;;1.85;;
11797;SDS011;5956;51.428;6.682;2023-08-06T09:18:40;2.50;;;2.30;;
11797;SDS011;5956;51.428;6.682;2023-08-06T09:21:08;2.63;;;2.10;;
11797;SDS011;5956;51.428;6.682;2023-08-06T09:23:39;2.22;;;1.73;;
11797;SDS011;5956;51.428;6.682;2023-08-06T09:26:05;2.00;;;1.90;;
11797;SDS011;5956;51.428;6.682;2023-08-06T09:28:36;2.40;;;2.20;;
11797;SDS011;5956;51.428;6.682;2023-08-06T09:31:03;3.63;;;2.10;;
11797;SDS011;5956;51.428;6.682;2023-08-06T09:33:30;4.53;;;2.25;;
11797;SDS011;5956;51.428;6.682;2023-08-06T09:35:56;2.72;;;2.30;;
11797;SDS011;5956;51.428;6.682;2023-08-06T09:38:24;3.85;;;2.50;;
11797;SDS011;5956;51.428;6.682;2023-08-06T09:40:51;3.90;;;2.90;;
11797;SDS011;5956;51.428;6.682;2023-08-06T09:43:18;4.13;;;2.92;;
11797;SDS011;5956;51.428;6.682;2023-08-06T09:45:45;3.65;;;3.10;;
11797;SDS011;5956;51.428;6.682;2023-08-06T09:48:11;3.70;;;3.40;;
11797;SDS011;5956;51.428;6.682;2023-08-06T09:50:38;4.28;;;3.90;;
11797;SDS011;5956;51.428;6.682;2023-08-06T09:53:07;3.88;;;3.58;;
11797;SDS011;5956;51.428;6.682;2023-08-06T09:55:35;5.82;;;4.60;;
11797;SDS011;5956;51.428;6.682;2023-08-06T09:58:01;4.78;;;4.38;;
11797;SDS011;5956;51.428;6.682;2023-08-06T10:00:28;4.93;;;4.63;;
11797;SDS011;5956;51.428;6.682;2023-08-06T10:02:59;5.75;;;5.32;;
11797;SDS011;5956;51.428;6.682;2023-08-06T10:05:25;5.47;;;5.00;;
11797;SDS011;5956;51.428;6.682;2023-08-06T10:07:52;6.88;;;5.40;;
11797;SDS011;5956;51.428;6.682;2023-08-06T10:10:20;6.05;;;5.55;;
11797;SDS011;5956;51.428;6.682;2023-08-06T10:12:49;6.93;;;6.32;;
11797;SDS011;5956;51.428;6.682;2023-08-06T10:15:16;6.90;;;6.30;;
11797;SDS011;5956;51.428;6.682;2023-08-06T10:17:43;7.20;;;6.60;;
11797;SDS011;5956;51.428;6.682;2023-08-06T10:20:12;6.82;;;6.15;;
11797;SDS011;5956;51.428;6.682;2023-08-06T10:22:41;6.97;;;6.32;;
11797;SDS011;5956;51.428;6.682;2023-08-06T10:25:08;7.82;;;6.40;;
11797;SDS011;5956;51.428;6.682;2023-08-06T10:27:35;7.60;;;6.90;;
11797;SDS011;5956;51.428;6.682;2023-08-06T10:32:52;6.10;;;3.97;;
11797;SDS011;5956;51.428;6.682;2023-08-06T10:35:32;3.50;;;3.30;;
11797;SDS011;5956;51.428;6.682;2023-08-06T10:38:04;3.17;;;2.80;;
11797;SDS011;5956;51.428;6.682;2023-08-06T10:40:31;3.05;;;2.00;;
11797;SDS011;5956;51.428;6.682;2023-08-06T10:42:58;2.85;;;1.88;;
11797;SDS011;5956;51.428;6.682;2023-08-06T10:45:25;2.47;;;2.00;;
11797;SDS011;5956;51.428;6.682;2023-08-06T10:47:55;1.48;;;1.38;;
11797;SDS011;5956;51.428;6.682;2023-08-06T10:50:22;1.35;;;1.20;;
11797;SDS011;5956;51.428;6.682;2023-08-06T10:52:49;1.30;;;1.30;;
11797;SDS011;5956;51.428;6.682;2023-08-06T10:55:22;1.42;;;1.33;;
11797;SDS011;5956;51.428;6.682;2023-08-06T10:57:48;1.48;;;1.30;;
11797;SDS011;5956;51.428;6.682;2023-08-06T11:00:15;1.58;;;1.48;;
11797;SDS011;5956;51.428;6.682;2023-08-06T11:02:42;3.85;;;1.45;;
11797;SDS011;5956;51.428;6.682;2023-08-06T11:05:10;3.13;;;2.00;;
11797;SDS011;5956;51.428;6.682;2023-08-06T11:07:37;1.67;;;1.58;;
11797;SDS011;5956;51.428;6.682;2023-08-06T11:10:05;2.15;;;1.42;;
11797;SDS011;5956;51.428;6.682;2023-08-06T11:12:32;1.35;;;1.35;;
11797;SDS011;5956;51.428;6.682;2023-08-06T11:14:59;1.27;;;1.17;;
11797;SDS011;5956;51.428;6.682;2023-08-06T11:17:26;1.40;;;1.40;;
11797;SDS011;5956;51.428;6.682;2023-08-06T11:19:53;1.50;;;1.40;;
11797;SDS011;5956;51.428;6.682;2023-08-06T11:22:21;1.58;;;1.48;;
11797;SDS011;5956;51.428;6.682;2023-08-06T11:24:48;1.15;;;1.15;;
11797;SDS011;5956;51.428;6.682;2023-08-06T11:27:15;2.08;;;1.92;;
11797;SDS011;5956;51.428;6.682;2023-08-06T11:29:42;1.40;;;1.30;;
11797;SDS011;5956;51.428;6.682;2023-08-06T11:32:09;1.15;;;1.15;;
11797;SDS011;5956;51.428;6.682;2023-08-06T11:34:35;3.17;;;1.52;;
11797;SDS011;5956;51.428;6.682;2023-08-06T11:37:02;1.10;;;1.10;;
11797;SDS011;5956;51.428;6.682;2023-08-06T11:39:31;1.30;;;1.30;;
11797;SDS011;5956;51.428;6.682;2023-08-06T11:41:58;0.90;;;0.88;;
11797;SDS011;5956;51.428;6.682;2023-08-06T11:44:29;1.45;;;1.10;;
11797;SDS011;5956;51.428;6.682;2023-08-06T11:46:56;0.95;;;0.95;;
11797;SDS011;5956;51.428;6.682;2023-08-06T11:52:10;0.98;;;0.98;;
11797;SDS011;5956;51.428;6.682;2023-08-06T11:54:38;0.82;;;0.82;;
11797;SDS011;5956;51.428;6.682;2023-08-06T11:57:05;1.00;;;1.00;;
11797;SDS011;5956;51.428;6.682;2023-08-06T11:59:31;2.17;;;1.00;;
11797;SDS011;5956;51.428;6.682;2023-08-06T12:01:59;1.20;;;1.10;;
11797;SDS011;5956;51.428;6.682;2023-08-06T12:04:26;0.90;;;0.90;;
11797;SDS011;5956;51.428;6.682;2023-08-06T12:06:52;0.90;;;0.90;;
11797;SDS011;5956;51.428;6.682;2023-08-06T12:09:19;0.90;;;0.90;;
11797;SDS011;5956;51.428;6.682;2023-08-06T12:11:47;1.15;;;1.15;;
11797;SDS011;5956;51.428;6.682;2023-08-06T12:14:13;1.30;;;1.30;;
11797;SDS011;5956;51.428;6.682;2023-08-06T12:16:40;1.17;;;1.17;;
11797;SDS011;5956;51.428;6.682;2023-08-06T12:19:06;1.10;;;1.10;;
11797;SDS011;5956;51.428;6.682;2023-08-06T12:21:33;2.53;;;2.33;;
11797;SDS011;5956;51.428;6.682;2023-08-06T12:23:59;2.58;;;1.65;;
11797;SDS011;5956;51.428;6.682;2023-08-06T12:26:26;1.33;;;1.33;;
11797;SDS011;5956;51.428;6.682;2023-08-06T12:28:56;1.63;;;1.55;;
11797;SDS011;5956;51.428;6.682;2023-08-06T12:31:23;1.50;;;1.50;;
11797;SDS011;5956;51.428;6.682;2023-08-06T12:33:49;1.60;;;1.50;;
11797;SDS011;5956;51.428;6.682;2023-08-06T12:36:16;3.63;;;3.42;;
11797;SDS011;5956;51.428;6.682;2023-08-06T12:38:42;2.38;;;2.28;;
11797;SDS011;5956;51.428;6.682;2023-08-06T12:41:09;2.60;;;2.50;;
11797;SDS011;5956;51.428;6.682;2023-08-06T12:43:36;1.92;;;1.83;;
11797;SDS011;5956;51.428;6.682;2023-08-06T12:46:03;2.58;;;2.38;;
11797;SDS011;5956;51.428;6.682;2023-08-06T12:48:31;2.17;;;2.08;;
11797;SDS011;5956;51.428;6.682;2023-08-06T12:50:57;2.10;;;2.00;;
11797;SDS011;5956;51.428;6.682;2023-08-06T12:53:24;2.95;;;2.63;;
11797;SDS011;5956;51.428;6.682;2023-08-06T12:55:51;2.72;;;2.63;;
11797;SDS011;5956;51.428;6.682;2023-08-06T12:58:17;3.03;;;2.83;;
11797;SDS011;5956;51.428;6.682;2023-08-06T13:00:44;2.90;;;2.70;;
11797;SDS011;5956;51.428;6.682;2023-08-06T13:03:12;2.95;;;2.75;;
11797;SDS011;5956;51.428;6.682;2023-08-06T13:05:38;3.17;;;2.90;;
11797;SDS011;5956;51.428;6.682;2023-08-06T13:08:05;2.70;;;2.60;;
11797;SDS011;5956;51.428;6.682;2023-08-06T13:10:31;2.85;;;2.65;;
11797;SDS011;5956;51.428;6.682;2023-08-06T13:12:58;2.75;;;2.55;;
11797;SDS011;5956;51.428;6.682;2023-08-06T13:15:24;5.80;;;5.25;;
11797;SDS011;5956;51.428;6.682;2023-08-06T13:17:51;3.63;;;3.38;;
11797;SDS011;5956;51.428;6.682;2023-08-06T13:20:19;2.83;;;2.63;;
11797;SDS011;5956;51.428;6.682;2023-08-06T13:22:47;3.00;;;2.80;;
11797;SDS011;5956;51.428;6.682;2023-08-06T13:25:15;3.42;;;2.97;;
11797;SDS011;5956;51.428;6.682;2023-08-06T13:27:42;3.42;;;3.13;;
11797;SDS011;5956;51.428;6.682;2023-08-06T13:30:09;3.40;;;2.97;;
11797;SDS011;5956;51.428;6.682;2023-08-06T13:32:36;3.22;;;2.92;;
11797;SDS011;5956;51.428;6.682;2023-08-06T13:35:03;2.88;;;2.75;;
11797;SDS011;5956;51.428;6.682;2023-08-06T13:37:31;3.30;;;3.05;;
11797;SDS011;5956;51.428;6.682;2023-08-06T13:39:57;3.00;;;2.80;;
11797;SDS011;5956;51.428;6.682;2023-08-06T13:42:24;2.85;;;2.65;;
11797;SDS011;5956;51.428;6.682;2023-08-06T13:44:50;3.40;;;3.08;;
11797;SDS011;5956;51.428;6.682;2023-08-06T13:47:18;2.78;;;2.58;;
11797;SDS011;5956;51.428;6.682;2023-08-06T13:49:44;2.90;;;2.45;;
11797;SDS011;5956;51.428;6.682;2023-08-06T13:52:11;3.00;;;2.70;;
11797;SDS011;5956;51.428;6.682;2023-08-06T13:54:39;2.78;;;2.58;;
11797;SDS011;5956;51.428;6.682;2023-08-06T13:57:05;2.40;;;2.20;;
11797;SDS011;5956;51.428;6.682;2023-08-06T13:59:32;2.67;;;2.47;;
11797;SDS011;5956;51.428;6.682;2023-08-06T14:01:58;8.75;;;7.85;;
11797;SDS011;5956;51.428;6.682;2023-08-06T14:04:26;4.60;;;3.90;;
11797;SDS011;5956;51.428;6.682;2023-08-06T14:06:52;2.65;;;2.47;;
11797;SDS011;5956;51.428;6.682;2023-08-06T14:09:18;2.97;;;2.50;;
11797;SDS011;5956;51.428;6.682;2023-08-06T14:11:46;2.63;;;2.42;;
11797;SDS011;5956;51.428;6.682;2023-08-06T14:14:13;2.35;;;2.25;;
11797;SDS011;5956;51.428;6.682;2023-08-06T14:16:39;2.55;;;2.30;;
11797;SDS011;5956;51.428;6.682;2023-08-06T14:19:06;2.10;;;2.00;;
11797;SDS011;5956;51.428;6.682;2023-08-06T14:21:35;2.20;;;2.10;;
11797;SDS011;5956;51.428;6.682;2023-08-06T14:24:02;2.53;;;2.40;;
11797;SDS011;5956;51.428;6.682;2023-08-06T14:26:29;1.95;;;1.85;;
11797;SDS011;5956;51.428;6.682;2023-08-06T14:28:56;2.03;;;1.90;;
11797;SDS011;5956;51.428;6.682;2023-08-06T14:31:23;1.85;;;1.75;;
11797;SDS011;5956;51.428;6.682;2023-08-06T14:33:50;2.33;;;2.13;;
11797;SDS011;5956;51.428;6.682;2023-08-06T14:36:16;2.50;;;2.30;;
11797;SDS011;5956;51.428;6.682;2023-08-06T14:38:43;1.95;;;1.85;;
11797;SDS011;5956;51.428;6.682;2023-08-06T14:41:09;1.80;;;1.70;;
11797;SDS011;5956;51.428;6.682;2023-08-06T14:43:36;2.55;;;2.25;;
11797;SDS011;5956;51.428;6.682;2023-08-06T14:46:03;2.20;;;2.10;;
11797;SDS011;5956;51.428;6.682;2023-08-06T14:48:30;2.75;;;2.10;;
11797;SDS011;5956;51.428;6.682;2023-08-06T14:50:57;1.95;;;1.85;;
11797;SDS011;5956;51.428;6.682;2023-08-06T14:53:23;2.13;;;1.98;;
11797;SDS011;5956;51.428;6.682;2023-08-06T14:55:50;2.00;;;1.90;;
11797;SDS011;5956;51.428;6.682;2023-08-06T14:58:16;2.00;;;1.90;;
11797;SDS011;5956;51.428;6.682;2023-08-06T15:00:44;2.05;;;1.95;;
11797;SDS011;5956;51.428;6.682;2023-08-06T15:03:12;2.38;;;2.17;;